Time;durP1;ratioP1;P1;durP2;ratioP2;P2;SDS_P1;SDS_P2;PMS_P1;PMS_P2;Temp;Humidity;BMP_temperature;BMP_pressure;BME280_temperature;BME280_humidity;BME280_pressure;Samples;Min_cycle;Max_cycle;Signal;HPM_P1;HPM_P2
2021/05/02 00:01:33;;;;;;;86.22;39.22;;;;;;;;;;4863328;29;20053;-73
2021/05/02 00:04:02;;;;;;;81.10;38.72;;;;;;;;;;4863449;29;20065;-72
2021/05/02 00:06:29;;;;;;;81.03;38.10;;;;;;;;;;4878239;29;20049;-73
2021/05/02 00:08:55;;;;;;;82.78;39.58;;;;;;;;;;4878510;29;20053;-73
2021/05/02 00:11:21;;;;;;;91.35;41.55;;;;;;;;;;4878544;29;20052;-73
2021/05/02 00:13:47;;;;;;;80.38;42.13;;;;;;;;;;4878449;29;20057;-73
2021/05/02 00:16:13;;;;;;;91.15;42.65;;;;;;;;;;4878113;29;20088;-73
2021/05/02 00:18:39;;;;;;;90.82;42.45;;;;;;;;;;4879353;29;20083;-73
2021/05/02 00:21:10;;;;;;;94.15;43.22;;;;;;;;;;4878392;29;20057;-73
2021/05/02 00:23:38;;;;;;;85.13;42.40;;;;;;;;;;4878386;29;20060;-73
2021/05/02 00:26:04;;;;;;;91.28;41.88;;;;;;;;;;4863032;29;20060;-73
2021/05/02 00:28:31;;;;;;;86.72;42.40;;;;;;;;;;4874780;29;20659;-73
2021/05/02 00:30:57;;;;;;;87.03;41.72;;;;;;;;;;4859504;29;20497;-73
2021/05/02 00:33:23;;;;;;;85.88;40.58;;;;;;;;;;4859504;29;20076;-73
2021/05/02 00:35:50;;;;;;;84.45;41.85;;;;;;;;;;4850012;29;20049;-74
2021/05/02 00:38:16;;;;;;;69.25;38.92;;;;;;;;;;4862659;29;20084;-73
2021/05/02 00:40:43;;;;;;;65.95;36.70;;;;;;;;;;4877784;29;20053;-73
2021/05/02 00:43:13;;;;;;;68.80;35.88;;;;;;;;;;4877228;29;20057;-73
2021/05/02 00:46:02;;;;;;;59.85;32.72;;;;;;;;;;4862641;29;20057;-73
2021/05/02 00:48:36;;;;;;;51.88;32.85;;;;;;;;;;4862932;29;20116;-73
2021/05/02 00:51:05;;;;;;;56.45;32.72;;;;;;;;;;4862970;29;20077;-74
2021/05/02 00:54:10;;;;;;;53.22;33.78;;;;;;;;;;4862900;29;20211;-73
2021/05/02 00:57:14;;;;;;;56.85;33.47;;;;;;;;;;4864765;29;20053;-73
2021/05/02 00:59:53;;;;;;;56.20;33.35;;;;;;;;;;4849241;29;20489;-73
2021/05/02 01:02:19;;;;;;;64.35;35.97;;;;;;;;;;4877575;29;20493;-72
2021/05/02 01:04:45;;;;;;;57.60;34.13;;;;;;;;;;4862208;29;20061;-73
2021/05/02 01:07:27;;;;;;;58.95;35.28;;;;;;;;;;4858931;29;20141;-73
2021/05/02 01:09:54;;;;;;;68.25;37.70;;;;;;;;;;4858673;29;20497;-73
2021/05/02 01:12:20;;;;;;;68.43;38.15;;;;;;;;;;4843643;29;20049;-73
2021/05/02 01:14:52;;;;;;;75.57;38.33;;;;;;;;;;4828495;29;20057;-73
2021/05/02 01:17:18;;;;;;;70.85;37.95;;;;;;;;;;4829068;29;20113;-72
2021/05/02 01:19:48;;;;;;;68.15;38.25;;;;;;;;;;4843504;29;20053;-73
2021/05/02 01:22:20;;;;;;;68.63;36.47;;;;;;;;;;4843908;29;20053;-73
2021/05/02 01:24:50;;;;;;;75.50;40.22;;;;;;;;;;4843551;29;20540;-73
2021/05/02 01:27:27;;;;;;;78.78;40.80;;;;;;;;;;4843245;29;20058;-73
2021/05/02 01:29:53;;;;;;;79.38;39.60;;;;;;;;;;4867382;29;20081;-72
2021/05/02 01:32:20;;;;;;;74.53;41.17;;;;;;;;;;4862142;29;20063;-73
2021/05/02 01:34:47;;;;;;;85.80;43.75;;;;;;;;;;4877120;29;20052;-73
2021/05/02 01:37:13;;;;;;;68.85;41.22;;;;;;;;;;4877099;29;20053;-73
2021/05/02 01:39:40;;;;;;;59.78;37.53;;;;;;;;;;4862285;29;20164;-73
2021/05/02 01:42:07;;;;;;;70.38;41.78;;;;;;;;;;4862117;29;20057;-73
2021/05/02 01:44:33;;;;;;;58.70;37.22;;;;;;;;;;4877012;29;20057;-73
2021/05/02 01:47:04;;;;;;;60.20;37.67;;;;;;;;;;4861849;29;20100;-73
2021/05/02 01:49:33;;;;;;;51.03;35.53;;;;;;;;;;4862713;29;20049;-73
2021/05/02 01:51:59;;;;;;;60.70;34.50;;;;;;;;;;4861182;29;20129;-73
2021/05/02 01:54:25;;;;;;;59.45;34.78;;;;;;;;;;4876805;29;20512;-73
2021/05/02 01:56:51;;;;;;;55.65;33.67;;;;;;;;;;4861225;29;20053;-73
2021/05/02 01:59:17;;;;;;;58.88;35.83;;;;;;;;;;4861188;29;20048;-73
2021/05/02 02:01:43;;;;;;;68.20;36.35;;;;;;;;;;4861277;29;20092;-73
2021/05/02 02:04:10;;;;;;;59.17;34.80;;;;;;;;;;4876924;29;20065;-73
2021/05/02 02:06:36;;;;;;;55.45;33.92;;;;;;;;;;4861219;29;20053;-73
2021/05/02 02:09:07;;;;;;;59.45;35.60;;;;;;;;;;4878058;29;20053;-73
2021/05/02 02:11:34;;;;;;;62.67;34.95;;;;;;;;;;4861503;29;20140;-73
2021/05/02 02:14:00;;;;;;;63.30;36.80;;;;;;;;;;4876799;29;20057;-73
2021/05/02 02:16:26;;;;;;;66.82;37.83;;;;;;;;;;4861077;29;20105;-73
2021/05/02 02:18:53;;;;;;;75.18;39.65;;;;;;;;;;4857775;29;20501;-73
2021/05/02 02:21:24;;;;;;;67.60;38.60;;;;;;;;;;4859452;29;20437;-73
2021/05/02 02:23:59;;;;;;;69.60;39.47;;;;;;;;;;4846632;29;20057;-73
2021/05/02 02:26:27;;;;;;;71.70;40.00;;;;;;;;;;4846181;29;20058;-73
2021/05/02 02:28:54;;;;;;;70.20;39.42;;;;;;;;;;4862605;29;20079;-73
2021/05/02 02:31:22;;;;;;;71.30;38.88;;;;;;;;;;4846358;29;20054;-73
2021/05/02 02:33:49;;;;;;;73.15;40.75;;;;;;;;;;4846514;29;20085;-73
2021/05/02 02:36:16;;;;;;;74.90;41.65;;;;;;;;;;4861344;29;20053;-73
2021/05/02 02:38:42;;;;;;;83.72;43.83;;;;;;;;;;4846084;29;20528;-73
2021/05/02 02:41:13;;;;;;;78.68;43.22;;;;;;;;;;4846236;29;20049;-74
2021/05/02 02:43:39;;;;;;;83.88;42.65;;;;;;;;;;4846183;29;20136;-73
2021/05/02 02:46:05;;;;;;;87.60;46.05;;;;;;;;;;4845989;29;20425;-73
2021/05/02 02:48:34;;;;;;;80.10;42.58;;;;;;;;;;4861089;29;20509;-73
2021/05/02 02:51:03;;;;;;;77.00;42.58;;;;;;;;;;4861703;29;20061;-73
2021/05/02 02:53:33;;;;;;;86.32;44.45;;;;;;;;;;4846077;29;20049;-73
2021/05/02 02:56:07;;;;;;;77.55;43.13;;;;;;;;;;4845776;29;20532;-73
2021/05/02 02:58:35;;;;;;;89.30;45.83;;;;;;;;;;4861067;29;20101;-73
2021/05/02 03:01:04;;;;;;;84.28;46.10;;;;;;;;;;4860978;29;20053;-73
2021/05/02 03:03:30;;;;;;;91.57;45.60;;;;;;;;;;4845779;29;20057;-73
2021/05/02 03:05:56;;;;;;;89.30;46.28;;;;;;;;;;4845803;29;20061;-73
2021/05/02 03:08:23;;;;;;;102.95;49.47;;;;;;;;;;4860855;29;20053;-73
2021/05/02 03:10:50;;;;;;;95.88;46.70;;;;;;;;;;4860889;29;20566;-73
2021/05/02 03:13:16;;;;;;;87.85;45.58;;;;;;;;;;4845616;29;20110;-73
2021/05/02 03:15:43;;;;;;;78.57;44.40;;;;;;;;;;4845250;29;20565;-73
2021/05/02 03:18:19;;;;;;;80.40;43.95;;;;;;;;;;4860742;29;20132;-73
2021/05/02 03:20:47;;;;;;;79.35;44.65;;;;;;;;;;4860731;29;20485;-73
2021/05/02 03:23:17;;;;;;;87.65;44.80;;;;;;;;;;4845826;29;20053;-73
2021/05/02 03:25:44;;;;;;;84.75;45.13;;;;;;;;;;4845590;29;20061;-73
2021/05/02 03:28:17;;;;;;;87.50;45.25;;;;;;;;;;4845332;29;20061;-73
2021/05/02 03:30:46;;;;;;;80.55;43.00;;;;;;;;;;4860514;29;20049;-73
2021/05/02 03:33:13;;;;;;;78.90;44.50;;;;;;;;;;4860558;29;20081;-73
2021/05/02 03:35:41;;;;;;;85.93;44.50;;;;;;;;;;4860288;29;20482;-73
2021/05/02 03:38:26;;;;;;;81.78;45.75;;;;;;;;;;4845214;29;20589;-73
2021/05/02 03:40:54;;;;;;;86.35;46.50;;;;;;;;;;4860319;29;20513;-73
2021/05/02 03:43:20;;;;;;;85.75;45.33;;;;;;;;;;4845179;29;20088;-73
2021/05/02 03:45:46;;;;;;;85.35;44.85;;;;;;;;;;4844794;29;20497;-73
2021/05/02 03:48:12;;;;;;;87.50;45.72;;;;;;;;;;4860079;29;20501;-73
2021/05/02 03:50:38;;;;;;;92.20;45.40;;;;;;;;;;4845028;29;20057;-72
2021/05/02 03:53:05;;;;;;;88.50;44.13;;;;;;;;;;4856183;29;20053;-72
2021/05/02 03:55:46;;;;;;;81.15;44.08;;;;;;;;;;4878466;29;20500;-72
2021/05/02 03:58:13;;;;;;;74.45;43.72;;;;;;;;;;4863498;29;20056;-72
2021/05/02 04:00:40;;;;;;;83.53;43.92;;;;;;;;;;4863232;29;20053;-72
2021/05/02 04:03:06;;;;;;;82.63;43.35;;;;;;;;;;4878656;29;20052;-72
2021/05/02 04:05:33;;;;;;;82.03;45.15;;;;;;;;;;4862778;29;20481;-72
2021/05/02 04:07:59;;;;;;;82.82;42.78;;;;;;;;;;4879353;29;20113;-73
2021/05/02 04:10:25;;;;;;;85.95;44.95;;;;;;;;;;4863182;29;20105;-73
2021/05/02 04:12:51;;;;;;;83.55;44.75;;;;;;;;;;4862286;29;20133;-72
2021/05/02 04:15:18;;;;;;;90.60;45.85;;;;;;;;;;4862574;29;20057;-72
2021/05/02 04:17:44;;;;;;;81.88;42.95;;;;;;;;;;4862814;29;20497;-73
2021/05/02 04:20:11;;;;;;;76.97;42.55;;;;;;;;;;4878297;29;20056;-73
2021/05/02 04:22:38;;;;;;;76.13;42.25;;;;;;;;;;4862923;29;20049;-72
2021/05/02 04:25:04;;;;;;;74.90;42.13;;;;;;;;;;4878091;29;20113;-73
2021/05/02 04:27:31;;;;;;;79.10;41.55;;;;;;;;;;4877654;29;20081;-72
2021/05/02 04:29:57;;;;;;;85.43;43.58;;;;;;;;;;4877198;29;20069;-73
2021/05/02 04:32:24;;;;;;;78.30;43.38;;;;;;;;;;4878149;29;20105;-73
2021/05/02 04:34:51;;;;;;;78.05;43.47;;;;;;;;;;4893518;29;20049;-73
2021/05/02 04:37:18;;;;;;;77.85;43.58;;;;;;;;;;4877700;29;20056;-73
2021/05/02 04:39:44;;;;;;;81.70;43.75;;;;;;;;;;4827191;29;22970;-73
2021/05/02 04:42:10;;;;;;;73.38;43.03;;;;;;;;;;4897273;29;20053;-73
2021/05/02 04:44:37;;;;;;;71.80;41.47;;;;;;;;;;4908939;29;20048;-73
2021/05/02 04:47:04;;;;;;;76.30;42.10;;;;;;;;;;4896277;29;20053;-74
2021/05/02 04:49:31;;;;;;;77.00;42.55;;;;;;;;;;4896001;29;20084;-73
2021/05/02 04:51:57;;;;;;;77.63;43.08;;;;;;;;;;4880788;29;20052;-73
2021/05/02 04:54:23;;;;;;;79.53;42.90;;;;;;;;;;4896227;29;20497;-73
2021/05/02 04:56:49;;;;;;;76.50;43.00;;;;;;;;;;4897123;29;20057;-73
2021/05/02 04:59:15;;;;;;;76.55;42.50;;;;;;;;;;4897411;29;20077;-73
2021/05/02 05:01:43;;;;;;;73.55;43.45;;;;;;;;;;4895970;29;20132;-73
2021/05/02 05:04:09;;;;;;;71.18;42.10;;;;;;;;;;4896257;29;20120;-74
2021/05/02 05:06:35;;;;;;;70.15;42.33;;;;;;;;;;4880237;29;20401;-74
2021/05/02 05:09:03;;;;;;;73.38;42.67;;;;;;;;;;4896251;29;20104;-74
2021/05/02 05:11:29;;;;;;;71.40;42.08;;;;;;;;;;4880550;29;20131;-73
2021/05/02 05:13:55;;;;;;;67.90;39.88;;;;;;;;;;4895985;29;20055;-74
2021/05/02 05:16:22;;;;;;;59.83;40.38;;;;;;;;;;4897370;29;20539;-73
2021/05/02 05:18:48;;;;;;;61.22;40.92;;;;;;;;;;4897341;29;20516;-73
2021/05/02 05:21:15;;;;;;;63.95;39.70;;;;;;;;;;4880454;29;20088;-73
2021/05/02 05:23:41;;;;;;;58.90;39.47;;;;;;;;;;4897036;29;20057;-74
2021/05/02 05:26:07;;;;;;;57.63;37.83;;;;;;;;;;4895495;29;20060;-74
2021/05/02 05:28:33;;;;;;;62.75;38.50;;;;;;;;;;4896781;29;20444;-73
2021/05/02 05:30:59;;;;;;;52.38;37.70;;;;;;;;;;4880320;29;20096;-73
2021/05/02 05:33:30;;;;;;;57.28;37.50;;;;;;;;;;4880306;29;20432;-74
2021/05/02 05:35:56;;;;;;;59.38;39.10;;;;;;;;;;4895586;29;20056;-74
2021/05/02 05:38:22;;;;;;;53.97;36.67;;;;;;;;;;4880123;29;20053;-73
2021/05/02 05:40:48;;;;;;;54.15;38.25;;;;;;;;;;4895538;29;20496;-73
2021/05/02 05:43:14;;;;;;;55.67;38.25;;;;;;;;;;4880217;29;20107;-73
2021/05/02 05:45:40;;;;;;;53.30;38.15;;;;;;;;;;4879963;29;20457;-74
2021/05/02 05:48:07;;;;;;;50.95;36.47;;;;;;;;;;4895470;29;20101;-73
2021/05/02 05:50:33;;;;;;;55.92;35.78;;;;;;;;;;4895737;29;20480;-73
2021/05/02 05:52:59;;;;;;;51.85;36.03;;;;;;;;;;4895671;29;20053;-74
2021/05/02 05:55:26;;;;;;;52.17;35.90;;;;;;;;;;4895263;29;20424;-73
2021/05/02 05:57:53;;;;;;;49.15;35.47;;;;;;;;;;4898317;29;20052;-74
2021/05/02 06:00:21;;;;;;;47.60;34.22;;;;;;;;;;4899436;29;20601;-73
2021/05/02 06:02:47;;;;;;;49.25;34.72;;;;;;;;;;4884170;29;20461;-73
2021/05/02 06:05:15;;;;;;;46.33;34.75;;;;;;;;;;4883849;29;20504;-74
2021/05/02 06:07:42;;;;;;;48.83;34.25;;;;;;;;;;4883783;29;20525;-73
2021/05/02 06:10:08;;;;;;;51.70;36.60;;;;;;;;;;4883663;29;20104;-73
2021/05/02 06:12:35;;;;;;;47.95;35.92;;;;;;;;;;4899288;29;20105;-74
2021/05/02 06:15:01;;;;;;;49.72;35.42;;;;;;;;;;4883847;29;20144;-74
2021/05/02 06:17:28;;;;;;;48.15;35.33;;;;;;;;;;4883481;29;20056;-73
2021/05/02 06:19:54;;;;;;;50.50;36.38;;;;;;;;;;4883514;29;20524;-74
2021/05/02 06:22:20;;;;;;;48.17;34.15;;;;;;;;;;4898891;29;20116;-75
2021/05/02 06:24:46;;;;;;;44.85;32.30;;;;;;;;;;4899181;29;20083;-75
2021/05/02 06:27:13;;;;;;;45.25;33.80;;;;;;;;;;4883324;29;20108;-74
2021/05/02 06:29:40;;;;;;;42.92;32.90;;;;;;;;;;4900781;29;20060;-69
2021/05/02 06:32:07;;;;;;;44.17;32.08;;;;;;;;;;4888592;29;20109;-72
2021/05/02 06:34:33;;;;;;;39.33;30.88;;;;;;;;;;4887132;29;20054;-72
2021/05/02 06:37:00;;;;;;;36.30;29.60;;;;;;;;;;4899339;29;20056;-72
2021/05/02 06:39:28;;;;;;;35.88;28.90;;;;;;;;;;4872263;29;20056;-72
2021/05/02 06:41:55;;;;;;;35.85;27.77;;;;;;;;;;4873374;29;20053;-71
2021/05/02 06:44:21;;;;;;;41.75;31.58;;;;;;;;;;4899847;29;20128;-72
2021/05/02 06:46:47;;;;;;;35.00;28.55;;;;;;;;;;4878347;29;20126;-71
2021/05/02 06:49:13;;;;;;;37.63;29.98;;;;;;;;;;4895538;29;20136;-73
2021/05/02 06:51:39;;;;;;;35.13;28.20;;;;;;;;;;4885239;29;20120;-72
2021/05/02 06:54:06;;;;;;;43.88;30.65;;;;;;;;;;4892076;29;20048;-72
2021/05/02 06:56:33;;;;;;;36.80;29.55;;;;;;;;;;4901088;29;20124;-71
2021/05/02 06:59:00;;;;;;;40.25;30.33;;;;;;;;;;4892246;29;20076;-72
2021/05/02 07:01:26;;;;;;;42.05;31.65;;;;;;;;;;4884470;29;20049;-72
2021/05/02 07:03:56;;;;;;;41.08;31.17;;;;;;;;;;4896244;29;20526;-72
2021/05/02 07:06:32;;;;;;;41.50;30.40;;;;;;;;;;4882042;29;20062;-72
2021/05/02 07:08:58;;;;;;;35.90;28.40;;;;;;;;;;4897085;29;20060;-72
2021/05/02 07:11:24;;;;;;;33.25;26.52;;;;;;;;;;4896339;29;20101;-71
2021/05/02 07:13:50;;;;;;;31.35;23.77;;;;;;;;;;4897252;29;20163;-72
2021/05/02 07:16:17;;;;;;;30.83;25.23;;;;;;;;;;4896122;29;20104;-71
2021/05/02 07:18:44;;;;;;;31.20;24.90;;;;;;;;;;4897409;29;20052;-73
2021/05/02 07:21:10;;;;;;;28.60;24.85;;;;;;;;;;4880783;29;20053;-73
2021/05/02 07:23:40;;;;;;;29.85;25.50;;;;;;;;;;4896169;29;20108;-71
2021/05/02 07:26:06;;;;;;;30.38;25.35;;;;;;;;;;4895569;29;20053;-72
2021/05/02 07:28:32;;;;;;;35.53;25.67;;;;;;;;;;4895872;29;20116;-73
2021/05/02 07:30:58;;;;;;;34.17;27.83;;;;;;;;;;4880332;29;20072;-71
2021/05/02 07:33:27;;;;;;;33.35;26.48;;;;;;;;;;4895976;29;20108;-71
2021/05/02 07:35:54;;;;;;;27.13;24.20;;;;;;;;;;4896865;29;20496;-71
2021/05/02 07:38:21;;;;;;;26.90;22.33;;;;;;;;;;4880067;29;20481;-71
2021/05/02 07:40:47;;;;;;;28.05;21.67;;;;;;;;;;4895591;29;20052;-72
2021/05/02 07:43:14;;;;;;;25.90;20.30;;;;;;;;;;4896024;29;20052;-71
2021/05/02 07:45:40;;;;;;;23.55;19.45;;;;;;;;;;4880053;29;20535;-71
2021/05/02 07:48:06;;;;;;;22.40;19.00;;;;;;;;;;4903381;29;20079;-72
2021/05/02 07:50:33;;;;;;;22.48;17.98;;;;;;;;;;4881242;29;20059;-71
2021/05/02 07:52:59;;;;;;;20.48;18.25;;;;;;;;;;4894819;29;20053;-71
2021/05/02 07:55:25;;;;;;;20.98;18.30;;;;;;;;;;4896386;29;20052;-73
2021/05/02 07:57:51;;;;;;;20.33;17.15;;;;;;;;;;4896163;29;20052;-72
2021/05/02 08:00:19;;;;;;;23.42;18.80;;;;;;;;;;4919939;29;20048;-71
2021/05/02 08:02:46;;;;;;;24.27;18.33;;;;;;;;;;4904904;29;20572;-71
2021/05/02 08:05:12;;;;;;;22.55;17.23;;;;;;;;;;4895891;29;20393;-71
2021/05/02 08:07:38;;;;;;;24.75;20.85;;;;;;;;;;4895236;29;20124;-71
2021/05/02 08:10:05;;;;;;;24.10;19.80;;;;;;;;;;4868927;29;20078;-73
2021/05/02 08:12:31;;;;;;;23.33;17.55;;;;;;;;;;4871717;29;20049;-72
2021/05/02 08:14:57;;;;;;;20.38;18.13;;;;;;;;;;4875410;29;20049;-72
2021/05/02 08:17:23;;;;;;;21.80;17.48;;;;;;;;;;4887000;29;20053;-71
2021/05/02 08:19:50;;;;;;;21.80;17.70;;;;;;;;;;4892472;29;20053;-72
2021/05/02 08:22:17;;;;;;;22.40;17.90;;;;;;;;;;4879817;29;20140;-72
2021/05/02 08:24:43;;;;;;;21.17;17.40;;;;;;;;;;4888223;29;20108;-72
2021/05/02 08:27:09;;;;;;;20.85;18.65;;;;;;;;;;4887649;29;20461;-71
2021/05/02 08:29:35;;;;;;;17.65;15.40;;;;;;;;;;4901438;29;20410;-72
2021/05/02 08:32:01;;;;;;;19.48;16.15;;;;;;;;;;4885046;29;20049;-72
2021/05/02 08:34:28;;;;;;;17.90;15.02;;;;;;;;;;4899204;29;20081;-72
2021/05/02 08:36:54;;;;;;;19.48;16.23;;;;;;;;;;4892462;29;20060;-72
2021/05/02 08:39:20;;;;;;;19.20;16.95;;;;;;;;;;4895492;29;20512;-72
2021/05/02 08:41:46;;;;;;;18.52;15.95;;;;;;;;;;4884769;29;20064;-73
2021/05/02 08:44:13;;;;;;;19.60;16.80;;;;;;;;;;4895622;29;20488;-72
2021/05/02 08:46:39;;;;;;;17.90;15.50;;;;;;;;;;4884052;29;20576;-73
2021/05/02 08:49:05;;;;;;;20.35;16.15;;;;;;;;;;4895413;29;20112;-72
2021/05/02 08:51:32;;;;;;;17.42;14.60;;;;;;;;;;4945645;23;20454;-76
2021/05/02 08:54:00;;;;;;;19.40;15.13;;;;;;;;;;4936296;29;20269;-76
2021/05/02 08:56:29;;;;;;;17.25;15.45;;;;;;;;;;4921290;29;20043;-77
2021/05/02 08:58:55;;;;;;;18.92;15.48;;;;;;;;;;4953308;29;20051;-75
2021/05/02 09:01:31;;;;;;;16.48;14.77;;;;;;;;;;4933848;29;20043;-77
2021/05/02 09:04:04;;;;;;;21.50;14.88;;;;;;;;;;4920448;29;20111;-75
2021/05/02 09:06:32;;;;;;;16.15;14.45;;;;;;;;;;4935660;29;20074;-74
2021/05/02 09:09:09;;;;;;;17.10;14.43;;;;;;;;;;4906506;29;20055;-74
2021/05/02 09:11:39;;;;;;;15.60;13.80;;;;;;;;;;4952588;29;20070;-75
2021/05/02 09:14:08;;;;;;;16.08;14.02;;;;;;;;;;4935803;29;20097;-74
2021/05/02 09:16:56;;;;;;;15.02;13.40;;;;;;;;;;4952371;29;20419;-77
2021/05/02 09:19:26;;;;;;;17.35;13.57;;;;;;;;;;4918708;29;20561;-76
2021/05/02 09:21:53;;;;;;;15.80;12.93;;;;;;;;;;4919903;29;20051;-72
2021/05/02 09:24:33;;;;;;;14.52;12.40;;;;;;;;;;4952360;29;20093;-74
2021/05/02 09:27:12;;;;;;;17.02;13.30;;;;;;;;;;4949228;29;20115;-73
2021/05/02 09:29:42;;;;;;;15.35;13.00;;;;;;;;;;4952864;29;20051;-76
2021/05/02 09:32:10;;;;;;;14.15;12.57;;;;;;;;;;4919724;29;20051;-75
2021/05/02 09:34:37;;;;;;;14.98;12.75;;;;;;;;;;4954183;29;20074;-76
2021/05/02 09:37:07;;;;;;;17.65;12.88;;;;;;;;;;4936937;29;20051;-79
2021/05/02 09:39:41;;;;;;;13.68;12.25;;;;;;;;;;4936472;29;20418;-73
2021/05/02 09:42:14;;;;;;;15.75;12.93;;;;;;;;;;4952470;29;20552;-76
2021/05/02 09:44:44;;;;;;;16.65;12.85;;;;;;;;;;4935932;29;20150;-77
2021/05/02 09:47:34;;;;;;;13.77;12.30;;;;;;;;;;4947969;29;20525;-74
2021/05/02 09:50:18;;;;;;;13.82;12.43;;;;;;;;;;4935259;29;20138;-75
2021/05/02 09:52:48;;;;;;;13.48;12.02;;;;;;;;;;4914313;29;20130;-74
2021/05/02 09:55:22;;;;;;;16.58;13.50;;;;;;;;;;4950532;29;20055;-73
2021/05/02 09:57:56;;;;;;;14.10;12.50;;;;;;;;;;4949154;28;20062;-70
2021/05/02 10:00:33;;;;;;;15.80;12.85;;;;;;;;;;4950844;29;20470;-73
2021/05/02 10:03:00;;;;;;;13.80;12.20;;;;;;;;;;4929737;29;20047;-72
2021/05/02 10:05:26;;;;;;;14.93;12.90;;;;;;;;;;4951559;29;20047;-73
2021/05/02 10:07:53;;;;;;;14.13;12.63;;;;;;;;;;4951968;29;20482;-72
2021/05/02 10:10:20;;;;;;;16.58;13.93;;;;;;;;;;4934703;29;20051;-72
2021/05/02 10:12:50;;;;;;;16.13;14.45;;;;;;;;;;4951912;29;20102;-73
2021/05/02 10:15:17;;;;;;;16.40;14.35;;;;;;;;;;4934510;29;20078;-73
2021/05/02 10:17:45;;;;;;;19.63;15.13;;;;;;;;;;4933114;29;20058;-73
2021/05/02 10:20:13;;;;;;;18.05;15.30;;;;;;;;;;4933640;29;20106;-74
2021/05/02 10:22:40;;;;;;;18.73;15.23;;;;;;;;;;4948656;29;20110;-73
2021/05/02 10:25:08;;;;;;;17.00;15.23;;;;;;;;;;4919288;29;20067;-73
2021/05/02 10:27:49;;;;;;;18.48;15.43;;;;;;;;;;4934840;29;20079;-74
2021/05/02 10:30:28;;;;;;;17.45;15.63;;;;;;;;;;4916414;29;20530;-75
2021/05/02 10:33:04;;;;;;;18.23;15.35;;;;;;;;;;4934380;29;20083;-75
2021/05/02 10:35:42;;;;;;;16.33;14.38;;;;;;;;;;4899806;29;20052;-76
2021/05/02 10:38:10;;;;;;;15.93;14.32;;;;;;;;;;4932309;29;20059;-76
2021/05/02 10:40:39;;;;;;;16.75;13.90;;;;;;;;;;4916625;29;20107;-76
2021/05/02 10:43:28;;;;;;;16.70;14.52;;;;;;;;;;4919130;29;20123;-75
2021/05/02 10:45:55;;;;;;;17.45;13.70;;;;;;;;;;4937739;29;20442;-75
2021/05/02 10:48:23;;;;;;;14.43;13.02;;;;;;;;;;4937805;29;20047;-73
2021/05/02 10:50:51;;;;;;;14.57;12.93;;;;;;;;;;4937441;29;20143;-74
2021/05/02 10:53:18;;;;;;;15.85;13.45;;;;;;;;;;4932066;29;20573;-72
2021/05/02 10:56:00;;;;;;;14.88;13.27;;;;;;;;;;4956673;28;20635;-73
2021/05/02 10:58:29;;;;;;;16.63;13.30;;;;;;;;;;4939737;28;20055;-73
2021/05/02 11:01:08;;;;;;;15.35;13.40;;;;;;;;;;4956486;29;20104;-73
2021/05/02 11:03:40;;;;;;;16.17;14.57;;;;;;;;;;4924729;29;20083;-72
2021/05/02 11:06:13;;;;;;;16.00;13.18;;;;;;;;;;4955857;28;20139;-71
2021/05/02 11:08:46;;;;;;;15.07;13.57;;;;;;;;;;4954350;29;20352;-73
2021/05/02 11:11:30;;;;;;;22.00;13.57;;;;;;;;;;4954377;29;20058;-73
2021/05/02 11:14:09;;;;;;;13.05;11.68;;;;;;;;;;4954848;29;20125;-71
2021/05/02 11:16:39;;;;;;;12.32;11.13;;;;;;;;;;4936711;29;20178;-72
2021/05/02 11:19:23;;;;;;;15.68;12.40;;;;;;;;;;4937008;29;20052;-73
2021/05/02 11:21:52;;;;;;;13.48;12.07;;;;;;;;;;4936825;29;20055;-73
2021/05/02 11:24:19;;;;;;;13.75;12.25;;;;;;;;;;4936173;29;20097;-72
2021/05/02 11:32:29;;;;;;;13.23;10.90;;;;;;;;;;4939887;28;20066;-73
2021/05/02 11:35:01;;;;;;;14.25;12.30;;;;;;;;;;4952844;29;20051;-72
2021/05/02 11:37:45;;;;;;;12.88;11.52;;;;;;;;;;4920135;29;20047;-75
2021/05/02 11:40:33;;;;;;;14.60;13.10;;;;;;;;;;4953195;29;20047;-73
2021/05/02 11:43:09;;;;;;;14.23;12.73;;;;;;;;;;4953194;29;20494;-75
2021/05/02 11:45:58;;;;;;;15.23;13.57;;;;;;;;;;4953200;29;20430;-71
2021/05/02 11:48:27;;;;;;;15.05;12.85;;;;;;;;;;4936951;29;20078;-74
2021/05/02 11:50:58;;;;;;;13.20;11.90;;;;;;;;;;4935290;29;20102;-76
2021/05/02 11:53:34;;;;;;;12.07;10.82;;;;;;;;;;4934960;28;20055;-77
2021/05/02 11:56:01;;;;;;;13.35;12.05;;;;;;;;;;4933108;29;20065;-78
2021/05/02 11:58:28;;;;;;;11.73;10.63;;;;;;;;;;4935566;29;20458;-77
2021/05/02 12:00:54;;;;;;;10.70;9.60;;;;;;;;;;4951949;29;20134;-76
2021/05/02 12:03:34;;;;;;;10.27;9.15;;;;;;;;;;4919328;29;20114;-77
2021/05/02 12:06:00;;;;;;;8.68;7.78;;;;;;;;;;4935100;29;20109;-77
2021/05/02 12:08:27;;;;;;;9.90;8.90;;;;;;;;;;4934113;29;20114;-77
2021/05/02 12:10:54;;;;;;;7.88;7.18;;;;;;;;;;4917816;29;20114;-77
2021/05/02 12:13:35;;;;;;;8.13;7.25;;;;;;;;;;4934927;29;20047;-77
2021/05/02 12:16:02;;;;;;;6.22;5.68;;;;;;;;;;4951292;29;20055;-75
2021/05/02 12:18:54;;;;;;;5.85;5.20;;;;;;;;;;4933133;29;20062;-76
2021/05/02 12:21:26;;;;;;;7.30;5.72;;;;;;;;;;4947754;29;20624;-74
2021/05/02 12:24:04;;;;;;;6.18;5.68;;;;;;;;;;4925266;29;20539;-74
2021/05/02 12:26:31;;;;;;;7.03;6.38;;;;;;;;;;4951078;29;20114;-75
2021/05/02 12:29:04;;;;;;;8.35;7.55;;;;;;;;;;4933388;29;20110;-75
2021/05/02 12:31:30;;;;;;;7.50;6.90;;;;;;;;;;4933657;29;20051;-75
2021/05/02 12:33:56;;;;;;;9.60;8.60;;;;;;;;;;4933213;29;20047;-76
2021/05/02 12:36:26;;;;;;;8.80;8.00;;;;;;;;;;4949310;29;20051;-76
2021/05/02 12:39:02;;;;;;;8.77;8.00;;;;;;;;;;4917261;29;20471;-75
2021/05/02 12:41:28;;;;;;;8.02;7.32;;;;;;;;;;4948387;29;20043;-75
2021/05/02 12:43:55;;;;;;;7.60;6.90;;;;;;;;;;4932205;29;20090;-76
2021/05/02 12:46:41;;;;;;;8.18;7.20;;;;;;;;;;4946530;29;20075;-72
2021/05/02 12:49:34;;;;;;;8.60;7.80;;;;;;;;;;4912291;29;20058;-73
2021/05/02 12:52:04;;;;;;;8.65;7.80;;;;;;;;;;4923551;29;20087;-73
2021/05/02 12:54:34;;;;;;;8.25;7.30;;;;;;;;;;4951074;29;20051;-74
2021/05/02 12:57:08;;;;;;;7.05;6.38;;;;;;;;;;4919032;29;20133;-74
2021/05/02 13:00:02;;;;;;;8.30;7.50;;;;;;;;;;4935382;29;20506;-74
2021/05/02 13:02:31;;;;;;;11.38;7.95;;;;;;;;;;4936854;29;20083;-74
2021/05/02 13:05:02;;;;;;;7.60;6.80;;;;;;;;;;4919588;28;20138;-74
2021/05/02 13:07:40;;;;;;;8.73;7.63;;;;;;;;;;4932139;29;20051;-75
2021/05/02 13:10:18;;;;;;;10.20;8.30;;;;;;;;;;4949389;29;20046;-74
2021/05/02 13:12:57;;;;;;;11.23;10.02;;;;;;;;;;4951840;29;20056;-75
2021/05/02 13:15:29;;;;;;;8.82;8.02;;;;;;;;;;4951444;29;20103;-75
2021/05/02 13:18:10;;;;;;;7.43;6.77;;;;;;;;;;4933103;29;20110;-74
2021/05/02 13:20:49;;;;;;;6.43;5.82;;;;;;;;;;4934592;29;20073;-74
2021/05/02 13:23:56;;;;;;;6.32;5.72;;;;;;;;;;4935931;29;20058;-74
2021/05/02 13:26:43;;;;;;;5.78;5.28;;;;;;;;;;4869777;29;20057;-74
2021/05/02 13:29:14;;;;;;;6.45;4.75;;;;;;;;;;4858554;29;20060;-75
2021/05/02 13:32:14;;;;;;;4.30;3.90;;;;;;;;;;4830150;29;20057;-74
2021/05/02 13:34:57;;;;;;;3.60;3.30;;;;;;;;;;4858683;29;20067;-75
2021/05/02 13:37:23;;;;;;;3.10;2.90;;;;;;;;;;4858743;29;20263;-75
2021/05/02 13:39:49;;;;;;;2.80;2.50;;;;;;;;;;4873483;29;20167;-74
2021/05/02 13:42:15;;;;;;;3.22;2.92;;;;;;;;;;4872716;29;20101;-74
2021/05/02 13:44:42;;;;;;;3.78;2.92;;;;;;;;;;4871766;29;20470;-75
2021/05/02 13:47:08;;;;;;;4.13;3.33;;;;;;;;;;4872501;29;20078;-75
2021/05/02 13:49:35;;;;;;;4.30;3.90;;;;;;;;;;4861066;29;20084;-75
2021/05/02 13:52:02;;;;;;;4.93;4.43;;;;;;;;;;4875967;29;20445;-75
2021/05/02 13:54:28;;;;;;;6.32;5.75;;;;;;;;;;4875506;29;20105;-74
2021/05/02 13:56:55;;;;;;;7.53;5.32;;;;;;;;;;4883644;29;20518;-74
2021/05/02 13:59:22;;;;;;;6.18;5.65;;;;;;;;;;4917867;29;20062;-74
2021/05/02 14:01:48;;;;;;;5.53;5.03;;;;;;;;;;4933171;29;20102;-74
2021/05/02 14:04:15;;;;;;;8.68;6.78;;;;;;;;;;4934628;29;20478;-75
2021/05/02 14:06:46;;;;;;;9.68;7.07;;;;;;;;;;4930362;29;20051;-75
2021/05/02 14:09:12;;;;;;;7.78;7.07;;;;;;;;;;4954000;29;20055;-75
2021/05/02 14:11:38;;;;;;;8.40;7.60;;;;;;;;;;4953613;29;20126;-75
2021/05/02 14:14:04;;;;;;;9.40;8.40;;;;;;;;;;4954089;29;20106;-74
2021/05/02 14:16:31;;;;;;;10.00;7.85;;;;;;;;;;4953469;28;20094;-74
2021/05/02 14:18:57;;;;;;;9.32;8.50;;;;;;;;;;4955203;29;20055;-77
2021/05/02 14:21:23;;;;;;;8.82;7.93;;;;;;;;;;4957435;29;20047;-76
2021/05/02 14:23:49;;;;;;;9.90;7.10;;;;;;;;;;4940500;29;20051;-73
2021/05/02 14:26:15;;;;;;;8.02;7.22;;;;;;;;;;4932340;28;20574;-76
2021/05/02 14:28:41;;;;;;;7.18;6.07;;;;;;;;;;4956155;29;20055;-75
2021/05/02 14:31:10;;;;;;;6.75;6.15;;;;;;;;;;4909817;29;20494;-75
2021/05/02 14:33:36;;;;;;;6.53;5.93;;;;;;;;;;4956598;29;20090;-75
2021/05/02 14:36:02;;;;;;;6.40;5.80;;;;;;;;;;4942104;29;20047;-73
2021/05/02 14:38:30;;;;;;;7.05;6.45;;;;;;;;;;4956286;29;20102;-73
2021/05/02 14:40:56;;;;;;;8.27;7.20;;;;;;;;;;4956570;29;20058;-73